createdAt,value
2022-08-20T00:01:10.026Z,148308.56
2022-08-20T00:03:40.272Z,148317.13
2022-08-20T00:06:13.086Z,148315.91
2022-08-20T00:08:40.857Z,148302.44
2022-08-20T00:11:11.034Z,148292.66
2022-08-20T00:13:43.569Z,148291.41
2022-08-20T00:16:11.222Z,148290.19
2022-08-20T00:18:39.553Z,148280.41
2022-08-20T00:21:09.625Z,148299.97
2022-08-20T00:23:38.728Z,148280.41
2022-08-20T00:26:06.705Z,148299.97
2022-08-20T00:28:34.001Z,148281.63
2022-08-20T00:31:09.299Z,148273.06
2022-08-20T00:33:37.482Z,148297.56
2022-08-20T00:36:10.747Z,148282.84
2022-08-20T00:38:40.123Z,148302.44
2022-08-20T00:41:11.219Z,148292.66
2022-08-20T00:43:44.387Z,148269.41
2022-08-20T00:46:19.333Z,148273.06
2022-08-20T00:48:49.174Z,148292.66
2022-08-20T00:51:29.933Z,148270.63
2022-08-20T00:54:04.341Z,148269.41
2022-08-20T00:56:35.895Z,148262.06
2022-08-20T00:59:11.221Z,148243.69
2022-08-20T01:01:55.435Z,148232.72
2022-08-20T01:04:26.319Z,148233.91
2022-08-20T01:06:53.926Z,148184.97
2022-08-20T01:09:49.562Z,148243.69
2022-08-20T01:12:09.818Z,148187.44
2022-08-20T01:14:45.687Z,148253.50
2022-08-20T01:17:19.904Z,148260.84
2022-08-20T01:19:55.556Z,148253.50
2022-08-20T01:22:50.746Z,148279.22
2022-08-20T01:25:34.098Z,148249.81
2022-08-20T01:28:01.913Z,148237.59
2022-08-20T01:30:31.487Z,148253.50
2022-08-20T01:32:58.551Z,148243.69
2022-08-20T01:35:26.291Z,148233.91
2022-08-20T01:37:53.404Z,148243.69
2022-08-20T01:40:47.340Z,148232.72
2022-08-20T01:43:14.959Z,148215.56
2022-08-20T01:45:44.775Z,148207.00
2022-08-20T01:48:15.290Z,148229.03
2022-08-20T01:50:50.911Z,148194.75
2022-08-20T01:53:24.901Z,148188.66
2022-08-20T01:55:51.932Z,148197.22
2022-08-20T01:58:18.966Z,148196.00
2022-08-20T02:00:46.704Z,148196.00
2022-08-20T02:03:13.888Z,148204.53
2022-08-20T02:05:41.024Z,148191.13
2022-08-20T02:08:08.214Z,148209.47
2022-08-20T02:10:35.784Z,148182.53
2022-08-20T02:13:05.219Z,148172.75
2022-08-20T02:15:35.818Z,148187.44
2022-08-20T02:18:10.320Z,148182.53
2022-08-20T02:20:37.879Z,148196.00
2022-08-20T02:23:06.462Z,148188.66
2022-08-20T02:25:37.291Z,148180.06
2022-08-20T02:28:09.394Z,148177.66
2022-08-20T02:30:42.382Z,148131.06
2022-08-20T02:33:13.024Z,148192.31
2022-08-20T02:35:42.750Z,148181.28
2022-08-20T02:38:10.862Z,148182.53
2022-08-20T02:40:38.682Z,148180.06
2022-08-20T02:43:06.169Z,148180.06
2022-08-20T02:45:43.624Z,148087.06
2022-08-20T02:48:20.819Z,148187.44
2022-08-20T02:50:54.893Z,148074.81
2022-08-20T02:53:22.800Z,148145.84
2022-08-20T02:55:50.643Z,148133.53
2022-08-20T02:58:19.391Z,148133.53
2022-08-20T03:00:47.153Z,148133.53
2022-08-20T03:03:15.339Z,148025.94
2022-08-20T03:05:44.931Z,148118.88
2022-08-20T03:08:14.613Z,148116.41
2022-08-20T03:10:43.923Z,148113.97
2022-08-20T03:13:12.418Z,148080.97
2022-08-20T03:15:42.096Z,148077.28
2022-08-20T03:18:09.727Z,148071.13
2022-08-20T03:20:36.853Z,148069.94
2022-08-20T03:23:04.684Z,148077.28
2022-08-20T03:25:33.149Z,148077.28
2022-08-20T03:28:00.640Z,148069.94
2022-08-20T03:30:29.657Z,148046.69
2022-08-20T03:32:57.267Z,148060.16
2022-08-20T03:35:26.218Z,148057.69
2022-08-20T03:37:54.380Z,148071.13
2022-08-20T03:40:29.255Z,148067.50
2022-08-20T03:42:57.127Z,148078.50
2022-08-20T03:45:25.814Z,148078.50
2022-08-20T03:47:54.807Z,148065.03
2022-08-20T03:50:26.056Z,148016.09
2022-08-20T03:52:54.528Z,148069.94
2022-08-20T03:55:24.173Z,148084.59
2022-08-20T03:57:55.518Z,148065.03
2022-08-20T04:00:30.018Z,148066.25
2022-08-20T04:02:57.244Z,148071.13
2022-08-20T04:05:25.397Z,148052.78
2022-08-20T04:08:00.084Z,148038.13
2022-08-20T04:10:32.004Z,148027.13
2022-08-20T04:12:59.400Z,148018.56
2022-08-20T04:15:27.058Z,148023.47
2022-08-20T04:17:54.403Z,148016.09
2022-08-20T04:20:25.842Z,148013.69
2022-08-20T04:22:59.090Z,148016.09
2022-08-20T04:25:29.835Z,147988.00
2022-08-20T04:28:03.362Z,148021.00
2022-08-20T04:30:30.709Z,148000.22
2022-08-20T04:32:59.470Z,147994.13
2022-08-20T04:35:26.828Z,148008.78
2022-08-20T04:38:02.726Z,147996.56
2022-08-20T04:40:48.855Z,147991.66
2022-08-20T04:43:16.000Z,147999.03
2022-08-20T04:45:44.740Z,148003.91
2022-08-20T04:48:15.193Z,148003.91
2022-08-20T04:50:45.069Z,148000.22
2022-08-20T04:53:14.465Z,148002.66
2022-08-20T04:55:43.194Z,148003.91
2022-08-20T04:58:14.022Z,148002.66
2022-08-20T05:00:41.198Z,148003.91
2022-08-20T05:03:08.908Z,147992.88
2022-08-20T05:05:36.142Z,147953.78
2022-08-20T05:08:04.141Z,147918.25
2022-08-20T05:10:31.313Z,147981.88
2022-08-20T05:12:58.780Z,147981.88
2022-08-20T05:15:26.352Z,147974.53
2022-08-20T05:18:00.610Z,147970.91
2022-08-20T05:20:31.292Z,147989.25
2022-08-20T05:22:59.441Z,147984.31
2022-08-20T05:25:30.419Z,147896.25
2022-08-20T05:28:09.154Z,147986.78
2022-08-20T05:30:38.500Z,147996.56
2022-08-20T05:33:08.723Z,147995.34
2022-08-20T05:35:41.138Z,148011.22
2022-08-20T05:38:11.748Z,147984.31
2022-08-20T05:40:41.498Z,148030.81
2022-08-20T05:43:09.100Z,148025.94
2022-08-20T05:45:38.877Z,148043.03
2022-08-20T05:48:13.123Z,148044.28
2022-08-20T05:50:42.667Z,148055.28
2022-08-20T05:53:09.798Z,148082.19
2022-08-20T05:55:37.335Z,148055.28
2022-08-20T05:58:07.284Z,148165.41
2022-08-20T06:00:35.663Z,148150.72
2022-08-20T06:03:21.154Z,148187.44
2022-08-20T06:05:48.223Z,148219.25
2022-08-20T06:08:16.758Z,148184.97
2022-08-20T06:10:44.255Z,148246.19
2022-08-20T06:13:13.809Z,148277.94
2022-08-20T06:15:41.547Z,148271.84
2022-08-20T06:18:10.275Z,148373.47
2022-08-20T06:20:54.540Z,148363.69
2022-08-20T06:23:23.156Z,148335.50
2022-08-20T06:25:50.398Z,148380.81
2022-08-20T06:28:18.645Z,148346.53
2022-08-20T06:30:45.930Z,148368.56
2022-08-20T06:33:12.988Z,148427.34
2022-08-20T06:35:40.226Z,148439.59
2022-08-20T06:38:09.784Z,148476.31
2022-08-20T06:40:36.799Z,148473.84
2022-08-20T06:43:04.166Z,148483.63
2022-08-20T06:45:32.859Z,148466.50
2022-08-20T06:48:05.050Z,148445.69
2022-08-20T06:50:44.452Z,148462.84
2022-08-20T06:53:17.683Z,148562.06
2022-08-20T06:55:49.015Z,148593.91
2022-08-20T06:58:36.906Z,148645.31
2022-08-20T07:01:09.577Z,148723.72
2022-08-20T07:03:39.068Z,148598.78
2022-08-20T07:06:07.335Z,148540.00
2022-08-20T07:08:35.475Z,148559.63
2022-08-20T07:11:02.769Z,148571.84
2022-08-20T07:13:30.515Z,148566.94
2022-08-20T07:15:57.675Z,148520.38
2022-08-20T07:18:28.829Z,148510.59
2022-08-20T07:20:57.754Z,148535.06
2022-08-20T07:23:26.001Z,148535.06
2022-08-20T07:25:53.827Z,148495.91
2022-08-20T07:28:23.822Z,148515.47
2022-08-20T07:31:13.869Z,148542.47
2022-08-20T07:33:44.525Z,148465.28
2022-08-20T07:36:12.790Z,148503.22
2022-08-20T07:38:40.135Z,148423.66
2022-08-20T07:41:10.072Z,148466.50
2022-08-20T07:43:38.239Z,148456.69
2022-08-20T07:46:08.934Z,148390.63
2022-08-20T07:48:40.090Z,148329.38
2022-08-20T07:51:09.174Z,148282.84
2022-08-20T07:53:38.918Z,148219.25
2022-08-20T07:56:08.691Z,148243.69
2022-08-20T07:58:36.707Z,148138.44
2022-08-20T08:01:05.965Z,148192.31
2022-08-20T08:03:39.670Z,148131.06
2022-08-20T08:06:09.539Z,148109.09
2022-08-20T08:08:38.532Z,148091.97
2022-08-20T08:11:06.892Z,148045.50
2022-08-20T08:13:38.098Z,148122.56
2022-08-20T08:16:06.451Z,148116.41
2022-08-20T08:18:41.696Z,148105.41
2022-08-20T08:21:12.877Z,148003.91
2022-08-20T08:23:44.831Z,148039.34
2022-08-20T08:26:15.981Z,147969.66
2022-08-20T08:28:46.466Z,148021.00
2022-08-20T08:31:14.524Z,148062.63
2022-08-20T08:33:42.421Z,148072.41
2022-08-20T08:36:12.542Z,148085.84
2022-08-20T08:38:43.581Z,148113.97
2022-08-20T08:41:34.139Z,148095.63
2022-08-20T08:44:09.358Z,148096.84
2022-08-20T08:46:41.758Z,148165.41
2022-08-20T08:49:16.223Z,148224.13
2022-08-20T08:51:50.193Z,148242.50
2022-08-20T08:54:22.157Z,148229.03
2022-08-20T08:56:50.618Z,148197.22
2022-08-20T08:59:20.229Z,148175.19
2022-08-20T09:01:54.413Z,148184.97
2022-08-20T09:04:32.375Z,148148.25
2022-08-20T09:07:02.842Z,148255.97
2022-08-20T09:09:35.500Z,148280.41
2022-08-20T09:12:05.187Z,148320.81
2022-08-20T09:14:32.359Z,148368.56
2022-08-20T09:16:59.417Z,148356.31
2022-08-20T09:19:26.478Z,148319.56
2022-08-20T09:21:53.564Z,148243.69
2022-08-20T09:24:20.674Z,148203.31
2022-08-20T09:26:47.743Z,148229.03
2022-08-20T09:29:15.090Z,148207.00
2022-08-20T09:31:42.270Z,148325.69
2022-08-20T09:34:09.503Z,148312.22
2022-08-20T09:36:36.567Z,148473.84
2022-08-20T09:39:03.731Z,148526.53
2022-08-20T09:41:33.672Z,148584.09
2022-08-20T09:44:02.270Z,148530.16
2022-08-20T09:46:29.307Z,148405.28
2022-08-20T09:48:56.372Z,148460.38
2022-08-20T09:51:23.527Z,148406.50
2022-08-20T09:53:50.726Z,148481.22
2022-08-20T09:56:18.140Z,148562.06
2022-08-20T09:58:49.980Z,148598.78
2022-08-20T10:01:18.880Z,148515.47
2022-08-20T10:03:48.699Z,148510.59
2022-08-20T10:06:17.755Z,148446.91
2022-08-20T10:08:44.860Z,148454.28
2022-08-20T10:11:12.066Z,148422.44
2022-08-20T10:13:39.239Z,148509.38
2022-08-20T10:16:06.723Z,148524.06
2022-08-20T10:18:35.047Z,148575.53
2022-08-20T10:21:02.135Z,148527.75
2022-08-20T10:23:29.274Z,148508.16
2022-08-20T10:25:56.306Z,148513.06
2022-08-20T10:28:23.528Z,148479.97
2022-08-20T10:30:50.626Z,148511.81
2022-08-20T10:33:17.814Z,148540.00
2022-08-20T10:35:44.919Z,148473.84
2022-08-20T10:38:12.010Z,148467.75
2022-08-20T10:40:39.129Z,148443.22
2022-08-20T10:43:06.219Z,148575.53
2022-08-20T10:45:33.347Z,148574.31
2022-08-20T10:48:01.392Z,148655.16
2022-08-20T10:50:30.235Z,148650.22
2022-08-20T10:52:58.196Z,148699.22
2022-08-20T10:55:25.269Z,148756.88
2022-08-20T10:57:52.331Z,148718.81
2022-08-20T11:00:19.830Z,148718.81
2022-08-20T11:02:46.989Z,148754.41
2022-08-20T11:05:14.602Z,148709.03
2022-08-20T11:07:55.565Z,148552.25
2022-08-20T11:10:26.528Z,148629.41
2022-08-20T11:12:53.626Z,148554.72
2022-08-20T11:15:20.698Z,148611.06
2022-08-20T11:17:47.792Z,148591.47
2022-08-20T11:20:17.352Z,148736.03
2022-08-20T11:22:44.423Z,148858.56
2022-08-20T11:25:11.950Z,148814.44
2022-08-20T11:27:46.896Z,148748.28
2022-08-20T11:30:24.639Z,148740.94
2022-08-20T11:32:52.314Z,148782.59
2022-08-20T11:38:08.753Z,148777.69
2022-08-20T11:40:35.855Z,148672.28
2022-08-20T11:43:18.701Z,148655.16
2022-08-20T11:45:49.591Z,148758.09
2022-08-20T11:48:17.892Z,148878.16
2022-08-20T11:50:45.731Z,148981.16
2022-08-20T11:53:12.938Z,148943.16
2022-08-20T11:55:42.353Z,149017.94
2022-08-20T11:58:10.215Z,148995.91
2022-08-20T12:00:37.373Z,148905.13
2022-08-20T12:03:09.025Z,148938.25
2022-08-20T12:05:37.984Z,148971.34
2022-08-20T12:08:05.657Z,148999.53
2022-08-20T12:10:32.840Z,149096.47
2022-08-20T12:13:00.075Z,149100.13
2022-08-20T12:15:29.813Z,149020.41
2022-08-20T12:17:56.869Z,149040.00
2022-08-20T12:20:24.655Z,149098.91
2022-08-20T12:22:53.850Z,149130.78
2022-08-20T12:25:20.991Z,149149.19
2022-08-20T12:27:48.031Z,149057.19
2022-08-20T12:30:19.768Z,149103.81
2022-08-20T12:32:47.568Z,149091.53
2022-08-20T12:35:16.596Z,149187.19
2022-08-20T12:37:44.829Z,149177.38
2022-08-20T12:40:21.617Z,149123.41
2022-08-20T12:43:01.715Z,149174.97
2022-08-20T12:45:29.087Z,149177.38
2022-08-20T12:48:02.060Z,149168.78
2022-08-20T12:50:31.765Z,149035.09
2022-08-20T12:52:59.881Z,149005.69
2022-08-20T12:55:27.351Z,149003.22
2022-08-20T12:58:00.190Z,148981.16
2022-08-20T13:00:34.538Z,148992.22
2022-08-20T13:03:04.374Z,148959.13
2022-08-20T13:05:32.587Z,149047.38
2022-08-20T13:08:00.002Z,149068.19
2022-08-20T13:10:33.063Z,149002.00
2022-08-20T13:13:02.529Z,148988.53
2022-08-20T13:15:33.144Z,148979.94
2022-08-20T13:18:03.295Z,148956.66
2022-08-20T13:20:34.067Z,148949.31
2022-08-20T13:23:04.294Z,148923.56
2022-08-20T13:25:32.599Z,148991.00
2022-08-20T13:28:04.272Z,148998.31
2022-08-20T13:30:33.195Z,148948.06
2022-08-20T13:33:00.576Z,148951.75
2022-08-20T13:35:27.791Z,149015.50
2022-08-20T13:37:54.974Z,149091.53
2022-08-20T13:40:22.207Z,149108.72
2022-08-20T13:42:49.321Z,149059.66
2022-08-20T13:45:16.672Z,149003.22
2022-08-20T13:47:44.144Z,148993.41
2022-08-20T13:50:14.163Z,149030.19
2022-08-20T13:52:42.762Z,149101.38
2022-08-20T13:55:12.619Z,149027.78
2022-08-20T13:57:41.344Z,149022.88
2022-08-20T14:00:12.912Z,149047.38
2022-08-20T14:02:41.467Z,149049.81
2022-08-20T14:05:09.358Z,148991.00
2022-08-20T14:07:37.957Z,149065.75
2022-08-20T14:10:09.230Z,149116.09
2022-08-20T14:12:36.477Z,149098.91
2022-08-20T14:15:04.514Z,149095.22
2022-08-20T14:17:34.168Z,149117.31
2022-08-20T14:20:13.674Z,149086.63
2022-08-20T14:22:42.543Z,149149.19
2022-08-20T14:25:12.926Z,149160.22
2022-08-20T14:27:41.203Z,149206.84
2022-08-20T14:30:12.869Z,149108.72
2022-08-20T14:32:40.187Z,149226.44
2022-08-20T14:35:08.304Z,149145.50
2022-08-20T14:37:39.090Z,149155.31
2022-08-20T14:40:11.305Z,149143.06
2022-08-20T14:42:39.219Z,149168.78
2022-08-20T14:45:08.268Z,149192.09
2022-08-20T14:47:38.736Z,149174.97
2022-08-20T14:50:13.370Z,149167.59
2022-08-20T14:52:41.242Z,149188.44
2022-08-20T14:55:12.227Z,149265.72
2022-08-20T14:57:40.171Z,149345.50
2022-08-20T15:00:10.190Z,149366.31
2022-08-20T15:02:37.896Z,149425.28
2022-08-20T15:05:07.170Z,149404.34
2022-08-20T15:07:38.020Z,149381.03
2022-08-20T15:10:08.731Z,149427.75
2022-08-20T15:12:35.977Z,149395.81
2022-08-20T15:15:15.644Z,149214.19
2022-08-20T15:17:49.155Z,149367.53
2022-08-20T15:20:20.570Z,149269.41
2022-08-20T15:22:49.063Z,149270.63
2022-08-20T15:25:19.847Z,149329.53
2022-08-20T15:27:47.592Z,149484.19
2022-08-20T15:30:21.021Z,149359.00
2022-08-20T15:32:54.146Z,149366.31
2022-08-20T15:35:28.346Z,149476.81
2022-08-20T15:37:57.832Z,149408.03
2022-08-20T15:40:28.750Z,149346.72
2022-08-20T15:43:00.824Z,149417.91
2022-08-20T15:45:28.743Z,149578.72
2022-08-20T15:48:15.303Z,149567.63
2022-08-20T15:50:48.082Z,149646.25
2022-08-20T15:53:33.451Z,149690.47
2022-08-20T15:56:36.776Z,149604.50
2022-08-20T15:59:18.560Z,149737.16
2022-08-20T16:01:52.947Z,149834.16
2022-08-20T16:04:46.651Z,149842.75
2022-08-20T16:07:21.081Z,149823.09
2022-08-20T16:10:26.436Z,149893.19
2022-08-20T16:12:57.835Z,149997.56
2022-08-20T16:15:35.573Z,150189.38
2022-08-20T16:18:08.337Z,150225.03
2022-08-20T16:20:47.967Z,150286.47
2022-08-20T16:23:17.118Z,150320.88
2022-08-20T16:26:13.199Z,150448.81
2022-08-20T16:28:46.169Z,150568.16
2022-08-20T16:31:18.909Z,150697.38
2022-08-20T16:34:05.833Z,150656.75
2022-08-20T16:37:04.365Z,150693.66
2022-08-20T16:39:48.494Z,150765.09
2022-08-20T16:42:23.242Z,150938.66
2022-08-20T16:44:54.210Z,150865.97
2022-08-20T16:47:28.224Z,150774.94
2022-08-20T16:50:02.435Z,150877.13
2022-08-20T16:52:30.047Z,150742.91
2022-08-20T16:54:57.341Z,150717.03
2022-08-20T16:57:27.685Z,150712.13
2022-08-20T17:00:18.864Z,150765.09
2022-08-20T17:03:01.200Z,150674.00
2022-08-20T17:05:50.060Z,150563.22
2022-08-20T17:08:29.845Z,150277.84
2022-08-20T17:11:17.196Z,150292.59
2022-08-20T17:13:48.429Z,150393.47
2022-08-20T17:16:15.435Z,150341.84
2022-08-20T17:18:52.059Z,150543.56
2022-08-20T17:21:38.086Z,150592.75
2022-08-20T17:24:16.812Z,150765.09
2022-08-20T17:26:50.744Z,150227.47
2022-08-20T17:29:25.260Z,149918.94
2022-08-20T17:31:57.849Z,149598.38
2022-08-20T17:34:31.560Z,149400.69
2022-08-20T17:37:05.123Z,149262.09
2022-08-20T17:39:32.288Z,149133.25
2022-08-20T17:42:09.826Z,149125.88
2022-08-20T17:44:42.257Z,149066.97
2022-08-20T17:47:13.823Z,149017.94
2022-08-20T17:50:01.182Z,148899.03
2022-08-20T17:52:46.671Z,148981.16
2022-08-20T17:55:13.858Z,148981.16
2022-08-20T17:57:44.742Z,148913.78
2022-08-20T18:00:17.567Z,148934.59
2022-08-20T18:02:44.749Z,148861.00
2022-08-20T18:05:19.083Z,148831.59
2022-08-20T18:08:10.119Z,148788.75
2022-08-20T18:10:52.551Z,148765.47
2022-08-20T18:13:27.087Z,148764.19
2022-08-20T18:15:57.780Z,148731.13
2022-08-20T18:18:56.508Z,148705.34
2022-08-20T18:21:56.964Z,148669.84
2022-08-20T18:24:39.483Z,148679.66
2022-08-20T18:27:13.896Z,148652.69
2022-08-20T18:29:44.894Z,148604.94
2022-08-20T18:32:38.036Z,148563.31
2022-08-20T18:35:17.474Z,148555.94
2022-08-20T18:37:44.734Z,148483.63
2022-08-20T18:40:38.742Z,148515.47
2022-08-20T18:43:14.464Z,148468.97
2022-08-20T18:45:42.007Z,148466.50
2022-08-20T18:48:21.228Z,148449.38
2022-08-20T18:50:54.954Z,148422.44
2022-08-20T18:53:33.704Z,148453.06
2022-08-20T18:56:05.846Z,148433.44
2022-08-20T18:58:54.178Z,148419.97
2022-08-20T19:01:21.429Z,148388.16
2022-08-20T19:03:51.645Z,148358.78
2022-08-20T19:07:07.534Z,148209.47
2022-08-20T19:10:03.416Z,148315.91
2022-08-20T19:13:03.894Z,148277.94
2022-08-20T19:15:36.094Z,148269.41
2022-08-20T19:18:09.557Z,148241.22
2022-08-20T19:20:40.954Z,148133.53
2022-08-20T19:23:20.280Z,148204.53
2022-08-20T19:26:04.476Z,148175.19
2022-08-20T19:28:42.636Z,148197.22
2022-08-20T19:31:16.099Z,148162.94
2022-08-20T19:33:47.338Z,148156.84
2022-08-20T19:36:28.242Z,148162.94
2022-08-20T19:39:01.690Z,148155.63
2022-08-20T19:41:39.411Z,148144.53
2022-08-20T19:44:07.026Z,148121.31
2022-08-20T19:46:39.743Z,148096.84
2022-08-20T19:49:12.669Z,148089.50
2022-08-20T19:52:23.281Z,148051.59
2022-08-20T19:54:53.847Z,148032.03
2022-08-20T19:57:23.357Z,147986.78
2022-08-20T20:00:05.317Z,147989.25
2022-08-20T20:02:34.855Z,147940.31
2022-08-20T20:05:10.254Z,147924.34
2022-08-20T20:07:42.152Z,147891.34
2022-08-20T20:10:32.758Z,147906.00
2022-08-20T20:13:14.587Z,147914.56
2022-08-20T20:15:42.674Z,147849.78
2022-08-20T20:18:11.565Z,147901.13
2022-08-20T20:20:57.722Z,147898.69
2022-08-20T20:23:45.673Z,147847.38
2022-08-20T20:26:17.486Z,147810.69
2022-08-20T20:28:51.444Z,147800.88
2022-08-20T20:31:30.146Z,147772.78
2022-08-20T20:34:02.070Z,147766.69
2022-08-20T20:36:38.579Z,147756.91
2022-08-20T20:39:23.257Z,147770.34
2022-08-20T20:41:52.889Z,147766.69
2022-08-20T20:44:24.472Z,147659.13
2022-08-20T20:46:57.365Z,147681.06
2022-08-20T20:49:28.268Z,147634.66
2022-08-20T20:52:15.176Z,147651.75
2022-08-20T20:54:44.880Z,147656.66
2022-08-20T20:57:17.932Z,147650.56
2022-08-20T20:59:48.816Z,147611.44
2022-08-20T21:02:16.873Z,147642.00
2022-08-20T21:04:44.671Z,147639.53
2022-08-20T21:07:15.083Z,147624.88
2022-08-20T21:09:43.348Z,147622.47
2022-08-20T21:12:12.164Z,147594.31
2022-08-20T21:14:40.032Z,147579.69
2022-08-20T21:17:09.891Z,147566.25
2022-08-20T21:19:44.951Z,147507.59
2022-08-20T21:22:12.486Z,147525.91
2022-08-20T21:24:39.527Z,147512.53
2022-08-20T21:27:08.086Z,147546.69
2022-08-20T21:29:35.639Z,147519.81
2022-08-20T21:32:03.176Z,147478.25
2022-08-20T21:34:30.275Z,147500.28
2022-08-20T21:36:57.487Z,147462.41
2022-08-20T21:39:26.414Z,147417.22
2022-08-20T21:41:56.080Z,147451.38
2022-08-20T21:44:26.702Z,147429.41
2022-08-20T21:46:57.295Z,147429.41
2022-08-20T21:49:25.381Z,147409.88
2022-08-20T21:51:52.858Z,147325.66
2022-08-20T21:54:20.784Z,147358.59
2022-08-20T21:56:51.736Z,147374.44
2022-08-20T21:59:21.563Z,147375.72
2022-08-20T22:01:48.874Z,147287.78
2022-08-20T22:04:15.921Z,147345.16
2022-08-20T22:06:43.597Z,147334.19
2022-08-20T22:09:11.167Z,147326.84
2022-08-20T22:11:38.492Z,147280.47
2022-08-20T22:14:08.079Z,147282.88
2022-08-20T22:16:35.547Z,147248.75
2022-08-20T22:19:03.311Z,147276.81
2022-08-20T22:21:33.152Z,147251.16
2022-08-20T22:24:03.334Z,147225.50
2022-08-20T22:26:34.752Z,147203.53
2022-08-20T22:29:02.688Z,147190.09
2022-08-20T22:31:33.093Z,147232.81
2022-08-20T22:34:00.968Z,147214.50
2022-08-20T22:36:28.987Z,147148.63
2022-08-20T22:38:56.086Z,147112.00
2022-08-20T22:41:23.861Z,147187.69
2022-08-20T22:43:56.575Z,147171.78
2022-08-20T22:46:32.032Z,147165.72
2022-08-20T22:48:59.542Z,147153.50
2022-08-20T22:51:34.746Z,147158.38
2022-08-20T22:54:05.456Z,147155.97
2022-08-20T22:56:32.727Z,147158.38
2022-08-20T22:59:02.003Z,147112.00
2022-08-20T23:01:29.452Z,147099.78
2022-08-20T23:04:19.319Z,147103.47
2022-08-20T23:06:46.367Z,147090.03
2022-08-20T23:09:13.396Z,147058.31
2022-08-20T23:11:41.359Z,146994.94
2022-08-20T23:14:08.412Z,147046.16
2022-08-20T23:16:38.380Z,147019.31
2022-08-20T23:19:06.416Z,146996.13
2022-08-20T23:21:33.690Z,147031.47
2022-08-20T23:24:00.741Z,146992.47
2022-08-20T23:26:27.840Z,146968.06
2022-08-20T23:28:54.906Z,146963.16
2022-08-20T23:31:22.362Z,146966.78
2022-08-20T23:33:49.458Z,146947.28
2022-08-20T23:36:19.963Z,146938.75
2022-08-20T23:38:47.039Z,146936.34
2022-08-20T23:41:14.136Z,146911.91
2022-08-20T23:43:41.266Z,146914.38
2022-08-20T23:46:08.867Z,146938.75
2022-08-20T23:48:35.990Z,146926.59
2022-08-20T23:51:03.080Z,146899.75
2022-08-20T23:53:30.208Z,146865.59
2022-08-20T23:55:57.259Z,146907.03
2022-08-20T23:58:24.420Z,146893.63
